sensor_id;sensor_type;location;lat;lon;timestamp;pressure;altitude;pressure_sealevel;temperature;humidity
14269;BME280;7218;51.480;7.006;2023-09-19T00:00:19;75614.84;;;-143.00;90.63
14269;BME280;7218;51.480;7.006;2023-09-19T00:02:53;75640.81;;;-143.00;91.06
14269;BME280;7218;51.480;7.006;2023-09-19T00:05:20;75624.84;;;-143.00;89.24
14269;BME280;7218;51.480;7.006;2023-09-19T00:07:50;75654.78;;;-143.00;89.61
14269;BME280;7218;51.480;7.006;2023-09-19T00:10:19;75662.75;;;-143.00;89.49
14269;BME280;7218;51.480;7.006;2023-09-19T00:12:47;75660.78;;;-143.00;88.90
14269;BME280;7218;51.480;7.006;2023-09-19T00:15:13;75646.78;;;-143.00;87.98
14269;BME280;7218;51.480;7.006;2023-09-19T00:17:43;75630.81;;;-143.00;87.08
14269;BME280;7218;51.480;7.006;2023-09-19T00:20:11;75646.78;;;-143.00;87.25
14269;BME280;7218;51.480;7.006;2023-09-19T00:22:42;75622.84;;;-143.00;86.88
14269;BME280;7218;51.480;7.006;2023-09-19T00:25:08;75662.75;;;-143.00;88.08
14269;BME280;7218;51.480;7.006;2023-09-19T00:27:37;75674.75;;;-143.00;88.22
14269;BME280;7218;51.480;7.006;2023-09-19T00:30:07;75690.72;;;-143.00;88.35
14269;BME280;7218;51.480;7.006;2023-09-19T00:32:39;75704.69;;;-143.00;89.48
14269;BME280;7218;51.480;7.006;2023-09-19T00:35:06;75690.72;;;-143.00;89.03
14269;BME280;7218;51.480;7.006;2023-09-19T00:37:34;75714.66;;;-143.00;89.73
14269;BME280;7218;51.480;7.006;2023-09-19T00:40:01;75726.63;;;-143.00;90.15
14269;BME280;7218;51.480;7.006;2023-09-19T00:42:30;75710.66;;;-143.00;89.91
14269;BME280;7218;51.480;7.006;2023-09-19T00:44:56;75718.66;;;-143.00;90.19
14269;BME280;7218;51.480;7.006;2023-09-19T00:47:22;75740.63;;;-143.00;90.56
14269;BME280;7218;51.480;7.006;2023-09-19T00:49:50;75746.59;;;-143.00;90.76
14269;BME280;7218;51.480;7.006;2023-09-19T00:52:18;75730.63;;;-143.00;90.26
14269;BME280;7218;51.480;7.006;2023-09-19T00:54:47;75740.63;;;-143.00;90.92
14269;BME280;7218;51.480;7.006;2023-09-19T00:57:14;75738.63;;;-143.00;90.47
14269;BME280;7218;51.480;7.006;2023-09-19T00:59:44;75740.63;;;-143.00;90.50
14269;BME280;7218;51.480;7.006;2023-09-19T01:02:11;75772.56;;;-143.00;90.89
14269;BME280;7218;51.480;7.006;2023-09-19T01:04:40;75730.63;;;-143.00;89.15
14269;BME280;7218;51.480;7.006;2023-09-19T01:07:07;75734.63;;;-143.00;88.88
14269;BME280;7218;51.480;7.006;2023-09-19T01:09:34;75742.59;;;-143.00;89.20
14269;BME280;7218;51.480;7.006;2023-09-19T01:12:04;75734.63;;;-143.00;88.90
14269;BME280;7218;51.480;7.006;2023-09-19T01:14:39;75724.66;;;-143.00;88.66
14269;BME280;7218;51.480;7.006;2023-09-19T01:17:12;75752.59;;;-143.00;89.12
14269;BME280;7218;51.480;7.006;2023-09-19T01:20:10;75758.59;;;-143.00;89.32
14269;BME280;7218;51.480;7.006;2023-09-19T01:22:46;75764.56;;;-143.00;89.31
14269;BME280;7218;51.480;7.006;2023-09-19T01:28:30;75746.59;;;-143.00;88.83
14269;BME280;7218;51.480;7.006;2023-09-19T01:31:03;75764.56;;;-143.00;89.34
14269;BME280;7218;51.480;7.006;2023-09-19T01:33:53;75760.56;;;-143.00;88.78
14269;BME280;7218;51.480;7.006;2023-09-19T01:36:22;75782.53;;;-143.00;89.77
14269;BME280;7218;51.480;7.006;2023-09-19T01:38:49;75798.50;;;-143.00;89.85
14269;BME280;7218;51.480;7.006;2023-09-19T01:41:21;75774.53;;;-143.00;89.23
14269;BME280;7218;51.480;7.006;2023-09-19T01:43:52;75800.50;;;-143.00;89.28
14269;BME280;7218;51.480;7.006;2023-09-19T01:46:24;75796.50;;;-143.00;89.01
14269;BME280;7218;51.480;7.006;2023-09-19T01:48:58;75774.53;;;-143.00;88.27
14269;BME280;7218;51.480;7.006;2023-09-19T01:51:34;75794.50;;;-143.00;88.28
14269;BME280;7218;51.480;7.006;2023-09-19T01:54:08;75780.53;;;-143.00;87.76
14269;BME280;7218;51.480;7.006;2023-09-19T01:56:38;75794.50;;;-143.00;88.22
14269;BME280;7218;51.480;7.006;2023-09-19T01:59:08;75774.53;;;-143.00;87.04
14269;BME280;7218;51.480;7.006;2023-09-19T02:01:37;75794.50;;;-143.00;87.30
14269;BME280;7218;51.480;7.006;2023-09-19T02:04:05;75804.50;;;-143.00;87.57
14269;BME280;7218;51.480;7.006;2023-09-19T02:06:33;75814.47;;;-143.00;87.74
14269;BME280;7218;51.480;7.006;2023-09-19T02:09:00;75836.44;;;-143.00;87.25
14269;BME280;7218;51.480;7.006;2023-09-19T02:11:27;75818.47;;;-143.00;87.80
14269;BME280;7218;51.480;7.006;2023-09-19T02:13:54;75814.47;;;-143.00;87.45
14269;BME280;7218;51.480;7.006;2023-09-19T02:16:21;75810.47;;;-143.00;86.74
14269;BME280;7218;51.480;7.006;2023-09-19T02:18:49;75812.47;;;-143.00;86.79
14269;BME280;7218;51.480;7.006;2023-09-19T02:21:16;75858.38;;;-143.00;87.68
14269;BME280;7218;51.480;7.006;2023-09-19T02:23:43;75842.41;;;-143.00;87.33
14269;BME280;7218;51.480;7.006;2023-09-19T02:26:09;75814.47;;;-143.00;85.70
14269;BME280;7218;51.480;7.006;2023-09-19T02:28:37;75826.44;;;-143.00;85.34
14269;BME280;7218;51.480;7.006;2023-09-19T02:31:03;75828.44;;;-143.00;84.90
14269;BME280;7218;51.480;7.006;2023-09-19T02:33:31;75826.44;;;-143.00;84.75
14269;BME280;7218;51.480;7.006;2023-09-19T02:35:59;75830.44;;;-143.00;84.68
14269;BME280;7218;51.480;7.006;2023-09-19T02:38:26;75854.41;;;-143.00;84.83
14269;BME280;7218;51.480;7.006;2023-09-19T02:40:52;75858.38;;;-143.00;85.56
14269;BME280;7218;51.480;7.006;2023-09-19T02:43:20;75866.38;;;-143.00;86.15
14269;BME280;7218;51.480;7.006;2023-09-19T02:45:47;75848.41;;;-143.00;85.83
14269;BME280;7218;51.480;7.006;2023-09-19T02:48:15;75850.41;;;-143.00;85.92
14269;BME280;7218;51.480;7.006;2023-09-19T02:50:41;75858.38;;;-143.00;86.11
14269;BME280;7218;51.480;7.006;2023-09-19T02:53:10;75820.47;;;-143.00;85.16
14269;BME280;7218;51.480;7.006;2023-09-19T02:55:38;75854.41;;;-143.00;85.76
14269;BME280;7218;51.480;7.006;2023-09-19T02:58:06;75866.38;;;-143.00;85.55
14269;BME280;7218;51.480;7.006;2023-09-19T03:00:33;75874.34;;;-143.00;85.60
14269;BME280;7218;51.480;7.006;2023-09-19T03:03:00;75868.38;;;-143.00;85.92
14269;BME280;7218;51.480;7.006;2023-09-19T03:05:27;75896.31;;;-143.00;86.41
14269;BME280;7218;51.480;7.006;2023-09-19T03:07:56;75898.31;;;-143.00;85.96
14269;BME280;7218;51.480;7.006;2023-09-19T03:10:27;75902.31;;;-143.00;85.87
14269;BME280;7218;51.480;7.006;2023-09-19T03:12:55;75892.31;;;-143.00;85.31
14269;BME280;7218;51.480;7.006;2023-09-19T03:15:22;75894.31;;;-143.00;85.23
14269;BME280;7218;51.480;7.006;2023-09-19T03:17:50;75888.34;;;-143.00;84.10
14269;BME280;7218;51.480;7.006;2023-09-19T03:20:17;75902.31;;;-143.00;84.03
14269;BME280;7218;51.480;7.006;2023-09-19T03:22:44;75890.31;;;-143.00;83.92
14269;BME280;7218;51.480;7.006;2023-09-19T03:25:10;75918.28;;;-143.00;84.04
14269;BME280;7218;51.480;7.006;2023-09-19T03:27:39;75898.31;;;-143.00;83.14
14269;BME280;7218;51.480;7.006;2023-09-19T03:30:06;75890.31;;;-143.00;82.80
14269;BME280;7218;51.480;7.006;2023-09-19T03:32:34;75918.28;;;-143.00;83.42
14269;BME280;7218;51.480;7.006;2023-09-19T03:35:01;75906.31;;;-143.00;82.53
14269;BME280;7218;51.480;7.006;2023-09-19T03:37:30;75902.31;;;-143.00;82.75
14269;BME280;7218;51.480;7.006;2023-09-19T03:39:57;75928.25;;;-143.00;83.51
14269;BME280;7218;51.480;7.006;2023-09-19T03:42:22;75926.25;;;-143.00;83.51
14269;BME280;7218;51.480;7.006;2023-09-19T03:44:52;75908.28;;;-143.00;83.05
14269;BME280;7218;51.480;7.006;2023-09-19T03:47:20;75902.31;;;-143.00;82.54
14269;BME280;7218;51.480;7.006;2023-09-19T03:49:46;75900.31;;;-143.00;82.31
14269;BME280;7218;51.480;7.006;2023-09-19T03:52:13;75882.34;;;-143.00;81.92
14269;BME280;7218;51.480;7.006;2023-09-19T03:54:39;75888.34;;;-143.00;82.83
14269;BME280;7218;51.480;7.006;2023-09-19T03:57:06;75922.28;;;-143.00;83.13
14269;BME280;7218;51.480;7.006;2023-09-19T03:59:33;75914.28;;;-143.00;83.19
14269;BME280;7218;51.480;7.006;2023-09-19T04:02:02;75942.22;;;-143.00;83.75
14269;BME280;7218;51.480;7.006;2023-09-19T04:04:29;75922.28;;;-143.00;83.51
14269;BME280;7218;51.480;7.006;2023-09-19T04:06:56;75930.25;;;-143.00;83.56
14269;BME280;7218;51.480;7.006;2023-09-19T04:09:23;75932.25;;;-143.00;83.41
14269;BME280;7218;51.480;7.006;2023-09-19T04:11:49;75930.25;;;-143.00;83.19
14269;BME280;7218;51.480;7.006;2023-09-19T04:14:16;75930.25;;;-143.00;83.62
14269;BME280;7218;51.480;7.006;2023-09-19T04:16:43;75944.22;;;-143.00;83.36
14269;BME280;7218;51.480;7.006;2023-09-19T04:19:10;75926.25;;;-143.00;83.55
14269;BME280;7218;51.480;7.006;2023-09-19T04:21:38;75940.25;;;-143.00;84.02
14269;BME280;7218;51.480;7.006;2023-09-19T04:24:05;75930.25;;;-143.00;83.41
14269;BME280;7218;51.480;7.006;2023-09-19T04:26:31;75948.22;;;-143.00;84.00
14269;BME280;7218;51.480;7.006;2023-09-19T04:28:58;75932.25;;;-143.00;83.19
14269;BME280;7218;51.480;7.006;2023-09-19T04:31:26;75942.22;;;-143.00;83.72
14269;BME280;7218;51.480;7.006;2023-09-19T04:33:52;75938.25;;;-143.00;83.60
14269;BME280;7218;51.480;7.006;2023-09-19T04:36:20;75922.28;;;-143.00;83.09
14269;BME280;7218;51.480;7.006;2023-09-19T04:38:48;75962.19;;;-143.00;83.95
14269;BME280;7218;51.480;7.006;2023-09-19T04:41:15;75970.19;;;-143.00;84.43
14269;BME280;7218;51.480;7.006;2023-09-19T04:43:42;75944.22;;;-143.00;83.94
14269;BME280;7218;51.480;7.006;2023-09-19T04:46:08;75942.22;;;-143.00;83.70
14269;BME280;7218;51.480;7.006;2023-09-19T04:48:35;75920.28;;;-143.00;83.22
14269;BME280;7218;51.480;7.006;2023-09-19T04:51:03;75928.25;;;-143.00;84.37
14269;BME280;7218;51.480;7.006;2023-09-19T04:53:31;75922.28;;;-143.00;84.02
14269;BME280;7218;51.480;7.006;2023-09-19T04:55:57;75940.25;;;-143.00;84.31
14269;BME280;7218;51.480;7.006;2023-09-19T04:58:23;75954.22;;;-143.00;84.92
14269;BME280;7218;51.480;7.006;2023-09-19T05:00:50;75928.25;;;-143.00;84.15
14269;BME280;7218;51.480;7.006;2023-09-19T05:03:17;75930.25;;;-143.00;83.97
14269;BME280;7218;51.480;7.006;2023-09-19T05:05:46;75962.19;;;-143.00;84.98
14269;BME280;7218;51.480;7.006;2023-09-19T05:08:12;75952.22;;;-143.00;84.52
14269;BME280;7218;51.480;7.006;2023-09-19T05:10:41;75936.25;;;-143.00;84.24
14269;BME280;7218;51.480;7.006;2023-09-19T05:13:07;75956.22;;;-143.00;84.46
14269;BME280;7218;51.480;7.006;2023-09-19T05:15:34;75960.19;;;-143.00;84.73
14269;BME280;7218;51.480;7.006;2023-09-19T05:18:02;75976.16;;;-143.00;85.23
14269;BME280;7218;51.480;7.006;2023-09-19T05:20:28;75994.13;;;-143.00;85.56
14269;BME280;7218;51.480;7.006;2023-09-19T05:22:58;76008.09;;;-143.00;85.82
14269;BME280;7218;51.480;7.006;2023-09-19T05:25:26;76016.09;;;-143.00;86.16
14269;BME280;7218;51.480;7.006;2023-09-19T05:27:56;75992.13;;;-143.00;85.55
14269;BME280;7218;51.480;7.006;2023-09-19T05:30:25;76008.09;;;-143.00;86.05
14269;BME280;7218;51.480;7.006;2023-09-19T05:32:53;76022.09;;;-143.00;86.63
14269;BME280;7218;51.480;7.006;2023-09-19T05:35:19;76004.13;;;-143.00;86.24
14269;BME280;7218;51.480;7.006;2023-09-19T05:37:46;75996.13;;;-143.00;85.36
14269;BME280;7218;51.480;7.006;2023-09-19T05:40:16;76018.09;;;-143.00;85.53
14269;BME280;7218;51.480;7.006;2023-09-19T05:42:42;76014.09;;;-143.00;84.95
14269;BME280;7218;51.480;7.006;2023-09-19T05:45:11;76014.09;;;-143.00;85.09
14269;BME280;7218;51.480;7.006;2023-09-19T05:47:38;76012.09;;;-143.00;84.74
14269;BME280;7218;51.480;7.006;2023-09-19T05:50:06;76022.09;;;-143.00;84.90
14269;BME280;7218;51.480;7.006;2023-09-19T05:52:33;76026.06;;;-143.00;84.57
14269;BME280;7218;51.480;7.006;2023-09-19T05:54:59;76002.13;;;-143.00;84.03
14269;BME280;7218;51.480;7.006;2023-09-19T05:57:26;75998.13;;;-143.00;84.07
14269;BME280;7218;51.480;7.006;2023-09-19T05:59:55;75994.13;;;-143.00;83.44
14269;BME280;7218;51.480;7.006;2023-09-19T06:02:23;75996.13;;;-143.00;83.70
14269;BME280;7218;51.480;7.006;2023-09-19T06:04:54;76006.13;;;-143.00;83.63
14269;BME280;7218;51.480;7.006;2023-09-19T06:07:20;76012.09;;;-143.00;83.26
14269;BME280;7218;51.480;7.006;2023-09-19T06:09:47;75998.13;;;-143.00;82.76
14269;BME280;7218;51.480;7.006;2023-09-19T06:12:13;75970.19;;;-143.00;82.51
14269;BME280;7218;51.480;7.006;2023-09-19T06:14:42;75972.19;;;-143.00;82.31
14269;BME280;7218;51.480;7.006;2023-09-19T06:17:08;75974.16;;;-143.00;82.31
14269;BME280;7218;51.480;7.006;2023-09-19T06:19:37;75968.19;;;-143.00;82.38
14269;BME280;7218;51.480;7.006;2023-09-19T06:22:03;75984.16;;;-143.00;82.11
14269;BME280;7218;51.480;7.006;2023-09-19T06:24:30;75962.19;;;-143.00;81.68
14269;BME280;7218;51.480;7.006;2023-09-19T06:26:56;75986.16;;;-143.00;81.37
14269;BME280;7218;51.480;7.006;2023-09-19T06:29:27;75964.19;;;-143.00;81.65
14269;BME280;7218;51.480;7.006;2023-09-19T06:31:53;75958.19;;;-143.00;80.62
14269;BME280;7218;51.480;7.006;2023-09-19T06:34:20;75970.19;;;-143.00;81.75
14269;BME280;7218;51.480;7.006;2023-09-19T06:36:49;75920.28;;;-143.00;80.66
14269;BME280;7218;51.480;7.006;2023-09-19T06:39:17;75940.25;;;-143.00;80.74
14269;BME280;7218;51.480;7.006;2023-09-19T06:41:44;75918.28;;;-143.00;80.29
14269;BME280;7218;51.480;7.006;2023-09-19T06:44:11;75944.22;;;-143.00;80.31
14269;BME280;7218;51.480;7.006;2023-09-19T06:46:37;75948.22;;;-143.00;80.48
14269;BME280;7218;51.480;7.006;2023-09-19T06:49:06;75942.22;;;-143.00;80.65
14269;BME280;7218;51.480;7.006;2023-09-19T06:51:32;75908.28;;;-143.00;79.62
14269;BME280;7218;51.480;7.006;2023-09-19T06:54:01;75918.28;;;-143.00;79.26
14269;BME280;7218;51.480;7.006;2023-09-19T06:56:27;75966.19;;;-143.00;80.58
14269;BME280;7218;51.480;7.006;2023-09-19T06:58:54;75962.19;;;-143.00;80.55
14269;BME280;7218;51.480;7.006;2023-09-19T07:01:20;75946.22;;;-143.00;80.43
14269;BME280;7218;51.480;7.006;2023-09-19T07:03:47;75922.28;;;-143.00;79.80
14269;BME280;7218;51.480;7.006;2023-09-19T07:06:13;75926.25;;;-143.00;80.09
14269;BME280;7218;51.480;7.006;2023-09-19T07:08:40;75918.28;;;-143.00;79.97
14269;BME280;7218;51.480;7.006;2023-09-19T07:11:08;75918.28;;;-143.00;80.14
14269;BME280;7218;51.480;7.006;2023-09-19T07:13:34;75932.25;;;-143.00;80.20
14269;BME280;7218;51.480;7.006;2023-09-19T07:16:02;75906.31;;;-143.00;80.08
14269;BME280;7218;51.480;7.006;2023-09-19T07:18:30;75920.28;;;-143.00;80.63
14269;BME280;7218;51.480;7.006;2023-09-19T07:20:57;75922.28;;;-143.00;80.97
14269;BME280;7218;51.480;7.006;2023-09-19T07:23:26;75924.25;;;-143.00;80.56
14269;BME280;7218;51.480;7.006;2023-09-19T07:25:56;75914.28;;;-143.00;80.95
14269;BME280;7218;51.480;7.006;2023-09-19T07:28:24;75918.28;;;-143.00;80.48
14269;BME280;7218;51.480;7.006;2023-09-19T07:30:51;75914.28;;;-143.00;80.66
14269;BME280;7218;51.480;7.006;2023-09-19T07:33:17;75902.31;;;-143.00;80.68
14269;BME280;7218;51.480;7.006;2023-09-19T07:35:45;75826.44;;;-143.00;78.22
14269;BME280;7218;51.480;7.006;2023-09-19T07:38:12;75842.41;;;-143.00;78.74
14269;BME280;7218;51.480;7.006;2023-09-19T07:40:39;75870.38;;;-143.00;79.33
14269;BME280;7218;51.480;7.006;2023-09-19T07:43:05;75842.41;;;-143.00;79.04
14269;BME280;7218;51.480;7.006;2023-09-19T07:45:33;75840.44;;;-143.00;78.96
14269;BME280;7218;51.480;7.006;2023-09-19T07:48:02;75834.44;;;-143.00;78.43
14269;BME280;7218;51.480;7.006;2023-09-19T07:50:29;75862.38;;;-143.00;79.43
14269;BME280;7218;51.480;7.006;2023-09-19T07:52:57;75858.38;;;-143.00;78.90
14269;BME280;7218;51.480;7.006;2023-09-19T07:55:24;75852.41;;;-143.00;79.21
14269;BME280;7218;51.480;7.006;2023-09-19T07:57:51;75830.44;;;-143.00;78.17
14269;BME280;7218;51.480;7.006;2023-09-19T08:00:18;75850.41;;;-143.00;78.83
14269;BME280;7218;51.480;7.006;2023-09-19T08:02:46;75842.41;;;-143.00;78.93
14269;BME280;7218;51.480;7.006;2023-09-19T08:05:13;75868.38;;;-143.00;79.16
14269;BME280;7218;51.480;7.006;2023-09-19T08:07:43;75858.38;;;-143.00;78.92
14269;BME280;7218;51.480;7.006;2023-09-19T08:10:11;75874.34;;;-143.00;80.05
14269;BME280;7218;51.480;7.006;2023-09-19T08:12:38;75846.41;;;-143.00;78.68
14269;BME280;7218;51.480;7.006;2023-09-19T08:15:11;75836.44;;;-143.00;78.59
14269;BME280;7218;51.480;7.006;2023-09-19T08:17:38;75844.41;;;-143.00;79.11
14269;BME280;7218;51.480;7.006;2023-09-19T08:20:07;75822.47;;;-143.00;78.07
14269;BME280;7218;51.480;7.006;2023-09-19T08:22:40;75894.31;;;-143.00;79.55
14269;BME280;7218;51.480;7.006;2023-09-19T08:25:07;75844.41;;;-143.00;78.69
14269;BME280;7218;51.480;7.006;2023-09-19T08:27:34;75856.41;;;-143.00;78.76
14269;BME280;7218;51.480;7.006;2023-09-19T08:30:01;75828.44;;;-143.00;77.92
14269;BME280;7218;51.480;7.006;2023-09-19T08:32:28;75794.50;;;-143.00;76.92
14269;BME280;7218;51.480;7.006;2023-09-19T08:34:55;75830.44;;;-143.00;77.60
14269;BME280;7218;51.480;7.006;2023-09-19T08:37:23;75790.53;;;-143.00;76.63
14269;BME280;7218;51.480;7.006;2023-09-19T08:39:49;75778.53;;;-143.00;75.88
14269;BME280;7218;51.480;7.006;2023-09-19T08:42:16;75798.50;;;-143.00;75.56
14269;BME280;7218;51.480;7.006;2023-09-19T08:44:45;75784.53;;;-143.00;76.06
14269;BME280;7218;51.480;7.006;2023-09-19T08:47:14;75738.63;;;-143.00;74.93
14269;BME280;7218;51.480;7.006;2023-09-19T08:49:51;75786.53;;;-143.00;75.16
14269;BME280;7218;51.480;7.006;2023-09-19T08:52:25;75716.66;;;-143.00;73.93
14269;BME280;7218;51.480;7.006;2023-09-19T08:54:58;75752.59;;;-143.00;74.52
14269;BME280;7218;51.480;7.006;2023-09-19T08:57:33;75704.69;;;-143.00;73.99
14269;BME280;7218;51.480;7.006;2023-09-19T09:00:01;75660.78;;;-143.00;72.46
14269;BME280;7218;51.480;7.006;2023-09-19T09:02:31;75654.78;;;-143.00;71.99
14269;BME280;7218;51.480;7.006;2023-09-19T09:04:59;75660.78;;;-143.00;71.34
14269;BME280;7218;51.480;7.006;2023-09-19T09:07:28;75766.56;;;-143.00;73.27
14269;BME280;7218;51.480;7.006;2023-09-19T09:09:55;75710.66;;;-143.00;71.84
14269;BME280;7218;51.480;7.006;2023-09-19T09:12:22;75734.63;;;-143.00;72.70
14269;BME280;7218;51.480;7.006;2023-09-19T09:14:49;75732.63;;;-143.00;72.78
14269;BME280;7218;51.480;7.006;2023-09-19T09:17:16;75720.66;;;-143.00;72.55
14269;BME280;7218;51.480;7.006;2023-09-19T09:19:45;75706.69;;;-143.00;72.50
14269;BME280;7218;51.480;7.006;2023-09-19T09:22:12;75702.69;;;-143.00;71.70
14269;BME280;7218;51.480;7.006;2023-09-19T09:24:52;75692.72;;;-143.00;70.33
14269;BME280;7218;51.480;7.006;2023-09-19T09:27:20;75606.88;;;-143.00;68.57
14269;BME280;7218;51.480;7.006;2023-09-19T09:29:50;75658.78;;;-143.00;68.60
14269;BME280;7218;51.480;7.006;2023-09-19T09:32:18;75648.78;;;-143.00;68.21
14269;BME280;7218;51.480;7.006;2023-09-19T09:34:45;75539.00;;;-143.00;67.21
14269;BME280;7218;51.480;7.006;2023-09-19T09:37:13;75570.94;;;-143.00;66.23
14269;BME280;7218;51.480;7.006;2023-09-19T09:39:49;75487.09;;;-143.00;65.18
14269;BME280;7218;51.480;7.006;2023-09-19T09:42:30;75461.16;;;-143.00;64.28
14269;BME280;7218;51.480;7.006;2023-09-19T09:45:15;75499.09;;;-143.00;63.50
14269;BME280;7218;51.480;7.006;2023-09-19T09:47:44;75527.03;;;-143.00;64.39
14269;BME280;7218;51.480;7.006;2023-09-19T09:50:29;75491.09;;;-143.00;64.82
14269;BME280;7218;51.480;7.006;2023-09-19T09:53:07;75511.06;;;-143.00;65.34
14269;BME280;7218;51.480;7.006;2023-09-19T09:56:00;75582.91;;;-143.00;65.42
14269;BME280;7218;51.480;7.006;2023-09-19T09:58:29;75539.00;;;-143.00;65.42
14269;BME280;7218;51.480;7.006;2023-09-19T10:00:57;75537.00;;;-143.00;65.02
14269;BME280;7218;51.480;7.006;2023-09-19T10:03:32;75541.00;;;-143.00;65.03
14269;BME280;7218;51.480;7.006;2023-09-19T10:06:03;75491.09;;;-143.00;64.13
14269;BME280;7218;51.480;7.006;2023-09-19T10:08:57;75560.97;;;-143.00;65.53
14269;BME280;7218;51.480;7.006;2023-09-19T10:11:28;75598.88;;;-143.00;66.05
14269;BME280;7218;51.480;7.006;2023-09-19T10:13:57;75594.91;;;-143.00;67.01
14269;BME280;7218;51.480;7.006;2023-09-19T10:16:29;75503.06;;;-143.00;64.94
14269;BME280;7218;51.480;7.006;2023-09-19T10:18:58;75479.13;;;-143.00;64.50
14269;BME280;7218;51.480;7.006;2023-09-19T10:21:28;75367.34;;;-143.00;61.65
14269;BME280;7218;51.480;7.006;2023-09-19T10:23:58;75335.41;;;-143.00;60.01
14269;BME280;7218;51.480;7.006;2023-09-19T10:26:26;75405.28;;;-143.00;61.34
14269;BME280;7218;51.480;7.006;2023-09-19T10:28:59;75439.19;;;-143.00;62.19
14269;BME280;7218;51.480;7.006;2023-09-19T10:31:27;75435.22;;;-143.00;61.08
14269;BME280;7218;51.480;7.006;2023-09-19T10:33:55;75365.34;;;-143.00;59.98
14269;BME280;7218;51.480;7.006;2023-09-19T10:36:24;75171.75;;;-143.00;55.67
14269;BME280;7218;51.480;7.006;2023-09-19T10:38:52;75231.63;;;-143.00;54.93
14269;BME280;7218;51.480;7.006;2023-09-19T10:41:24;75293.50;;;-143.00;56.07
14269;BME280;7218;51.480;7.006;2023-09-19T10:43:52;75373.34;;;-143.00;57.44
14269;BME280;7218;51.480;7.006;2023-09-19T10:46:21;75371.34;;;-143.00;58.89
14269;BME280;7218;51.480;7.006;2023-09-19T10:48:50;75485.13;;;-143.00;61.25
14269;BME280;7218;51.480;7.006;2023-09-19T10:51:22;75499.09;;;-143.00;61.45
14269;BME280;7218;51.480;7.006;2023-09-19T10:53:53;75485.13;;;-143.00;61.53
14269;BME280;7218;51.480;7.006;2023-09-19T10:56:27;75335.41;;;-143.00;56.52
14269;BME280;7218;51.480;7.006;2023-09-19T10:59:06;75231.63;;;-143.00;53.91
14269;BME280;7218;51.480;7.006;2023-09-19T11:01:43;75175.75;;;-143.00;52.90
14269;BME280;7218;51.480;7.006;2023-09-19T11:04:23;75179.72;;;-143.00;52.24
14269;BME280;7218;51.480;7.006;2023-09-19T11:07:00;75291.50;;;-143.00;55.07
14269;BME280;7218;51.480;7.006;2023-09-19T11:09:43;75221.66;;;-143.00;54.32
14269;BME280;7218;51.480;7.006;2023-09-19T11:12:11;75111.88;;;-143.00;51.37
14269;BME280;7218;51.480;7.006;2023-09-19T11:14:41;75171.75;;;-143.00;52.85
14269;BME280;7218;51.480;7.006;2023-09-19T11:17:41;75123.84;;;-143.00;51.89
14269;BME280;7218;51.480;7.006;2023-09-19T11:20:23;75095.91;;;-143.00;51.65
14269;BME280;7218;51.480;7.006;2023-09-19T11:23:18;75052.00;;;-143.00;50.31
14269;BME280;7218;51.480;7.006;2023-09-19T11:25:48;75153.78;;;-143.00;50.60
14269;BME280;7218;51.480;7.006;2023-09-19T11:28:33;75173.75;;;-143.00;52.30
14269;BME280;7218;51.480;7.006;2023-09-19T11:36:59;75036.03;;;-143.00;50.42
14269;BME280;7218;51.480;7.006;2023-09-19T11:39:27;75010.09;;;-143.00;49.00
14269;BME280;7218;51.480;7.006;2023-09-19T11:41:54;75121.84;;;-143.00;51.24
14269;BME280;7218;51.480;7.006;2023-09-19T11:44:33;75227.63;;;-143.00;52.92
14269;BME280;7218;51.480;7.006;2023-09-19T11:47:05;75195.69;;;-143.00;53.89
14269;BME280;7218;51.480;7.006;2023-09-19T11:49:32;75179.72;;;-143.00;53.00
14269;BME280;7218;51.480;7.006;2023-09-19T11:52:01;75183.72;;;-143.00;51.90
14269;BME280;7218;51.480;7.006;2023-09-19T11:54:31;74994.13;;;-143.00;49.33
14269;BME280;7218;51.480;7.006;2023-09-19T11:56:59;75020.06;;;-143.00;48.87
14269;BME280;7218;51.480;7.006;2023-09-19T11:59:26;75040.03;;;-143.00;49.19
14269;BME280;7218;51.480;7.006;2023-09-19T12:01:55;74858.41;;;-143.00;46.98
14269;BME280;7218;51.480;7.006;2023-09-19T12:04:33;74880.34;;;-143.00;45.40
14269;BME280;7218;51.480;7.006;2023-09-19T12:07:04;74790.56;;;-143.00;43.76
14269;BME280;7218;51.480;7.006;2023-09-19T12:09:32;74920.28;;;-143.00;47.39
14269;BME280;7218;51.480;7.006;2023-09-19T12:11:58;74730.69;;;-143.00;42.56
14269;BME280;7218;51.480;7.006;2023-09-19T12:14:26;74944.22;;;-143.00;45.82
14269;BME280;7218;51.480;7.006;2023-09-19T12:16:54;74996.13;;;-143.00;46.17
14269;BME280;7218;51.480;7.006;2023-09-19T12:19:22;74886.34;;;-143.00;44.72
14269;BME280;7218;51.480;7.006;2023-09-19T12:21:58;74888.34;;;-143.00;44.34
14269;BME280;7218;51.480;7.006;2023-09-19T12:24:31;74876.38;;;-143.00;43.86
14269;BME280;7218;51.480;7.006;2023-09-19T12:27:01;74912.28;;;-143.00;43.66
14269;BME280;7218;51.480;7.006;2023-09-19T12:29:30;74908.31;;;-143.00;42.43
14269;BME280;7218;51.480;7.006;2023-09-19T12:31:58;74768.59;;;-143.00;40.79
14269;BME280;7218;51.480;7.006;2023-09-19T12:34:29;74702.75;;;-143.00;38.88
14269;BME280;7218;51.480;7.006;2023-09-19T12:37:12;74906.31;;;-143.00;41.45
14269;BME280;7218;51.480;7.006;2023-09-19T12:39:43;74760.63;;;-143.00;40.35
14269;BME280;7218;51.480;7.006;2023-09-19T12:42:15;74842.44;;;-143.00;39.87
14269;BME280;7218;51.480;7.006;2023-09-19T12:44:44;74748.63;;;-143.00;39.91
14269;BME280;7218;51.480;7.006;2023-09-19T12:47:14;74732.69;;;-143.00;40.04
14269;BME280;7218;51.480;7.006;2023-09-19T12:50:13;74567.03;;;-143.00;37.76
14269;BME280;7218;51.480;7.006;2023-09-19T12:52:43;74720.69;;;-143.00;37.96
14269;BME280;7218;51.480;7.006;2023-09-19T12:55:24;74866.38;;;-143.00;39.85
14269;BME280;7218;51.480;7.006;2023-09-19T12:58:08;74980.16;;;-143.00;41.45
14269;BME280;7218;51.480;7.006;2023-09-19T13:00:37;74896.31;;;-143.00;40.63
14269;BME280;7218;51.480;7.006;2023-09-19T13:03:15;74756.63;;;-143.00;39.79
14269;BME280;7218;51.480;7.006;2023-09-19T13:05:50;74660.84;;;-143.00;38.31
14269;BME280;7218;51.480;7.006;2023-09-19T13:08:18;74920.28;;;-143.00;41.09
14269;BME280;7218;51.480;7.006;2023-09-19T13:11:08;74880.34;;;-143.00;42.24